sensor_id;sensor_type;location;lat;lon;timestamp;pressure;altitude;pressure_sealevel;temperature;humidity
45621;BME280;31345;51.522;10.702;2022-12-07T11:10:02;98728.09;;;2.86;100.00
45621;BME280;31345;51.522;10.702;2022-12-07T11:12:43;98734.84;;;2.88;100.00
45621;BME280;31345;51.522;10.702;2022-12-07T11:15:19;98737.91;;;2.98;100.00
45621;BME280;31345;51.522;10.702;2022-12-07T11:17:53;98735.66;;;2.90;100.00
45621;BME280;31345;51.522;10.702;2022-12-07T11:20:35;98728.59;;;2.94;100.00
45621;BME280;31345;51.522;10.702;2022-12-07T11:23:13;98731.72;;;3.02;100.00
45621;BME280;31345;51.522;10.702;2022-12-07T11:25:51;98735.16;;;3.03;100.00
45621;BME280;31345;51.522;10.702;2022-12-07T11:28:31;98725.22;;;3.14;100.00
45621;BME280;31345;51.522;10.702;2022-12-07T11:31:10;98732.00;;;3.17;100.00
45621;BME280;31345;51.522;10.702;2022-12-07T11:33:44;98727.81;;;3.14;100.00
45621;BME280;31345;51.522;10.702;2022-12-07T11:36:29;98728.97;;;3.07;100.00
45621;BME280;31345;51.522;10.702;2022-12-07T11:39:02;98730.19;;;3.19;100.00
45621;BME280;31345;51.522;10.702;2022-12-07T11:41:35;98729.94;;;3.46;100.00
45621;BME280;31345;51.522;10.702;2022-12-07T11:44:06;98725.22;;;3.35;100.00
45621;BME280;31345;51.522;10.702;2022-12-07T11:46:45;98717.25;;;3.40;100.00
45621;BME280;31345;51.522;10.702;2022-12-07T11:49:19;98716.81;;;3.30;100.00
45621;BME280;31345;51.522;10.702;2022-12-07T11:51:51;98708.94;;;3.33;100.00
45621;BME280;31345;51.522;10.702;2022-12-07T11:54:25;98706.09;;;3.39;100.00
45621;BME280;31345;51.522;10.702;2022-12-07T11:56:57;98714.44;;;3.46;100.00
45621;BME280;31345;51.522;10.702;2022-12-07T11:59:33;98709.50;;;3.40;100.00
45621;BME280;31345;51.522;10.702;2022-12-07T12:02:12;98710.53;;;3.36;100.00
45621;BME280;31345;51.522;10.702;2022-12-07T12:04:50;98705.84;;;3.25;100.00
45621;BME280;31345;51.522;10.702;2022-12-07T12:07:44;98706.94;;;3.19;100.00
45621;BME280;31345;51.522;10.702;2022-12-07T12:10:21;98706.81;;;3.22;100.00
45621;BME280;31345;51.522;10.702;2022-12-07T12:13:05;98703.47;;;3.41;100.00
45621;BME280;31345;51.522;10.702;2022-12-07T12:15:52;98708.75;;;3.38;100.00
45621;BME280;31345;51.522;10.702;2022-12-07T12:18:46;98703.78;;;3.33;100.00
45621;BME280;31345;51.522;10.702;2022-12-07T12:21:25;98699.13;;;3.41;100.00
45621;BME280;31345;51.522;10.702;2022-12-07T12:23:57;98695.09;;;3.34;100.00
45621;BME280;31345;51.522;10.702;2022-12-07T12:26:28;98681.47;;;3.51;100.00
45621;BME280;31345;51.522;10.702;2022-12-07T12:29:00;98681.91;;;3.61;100.00
45621;BME280;31345;51.522;10.702;2022-12-07T12:31:33;98687.19;;;3.79;100.00
45621;BME280;31345;51.522;10.702;2022-12-07T12:34:10;98687.25;;;3.77;100.00
45621;BME280;31345;51.522;10.702;2022-12-07T12:36:52;98682.81;;;3.60;100.00
45621;BME280;31345;51.522;10.702;2022-12-07T12:39:19;98671.00;;;3.54;100.00
45621;BME280;31345;51.522;10.702;2022-12-07T12:41:59;98668.06;;;3.62;100.00
45621;BME280;31345;51.522;10.702;2022-12-07T12:45:16;98671.19;;;3.71;100.00
45621;BME280;31345;51.522;10.702;2022-12-07T12:48:10;98673.38;;;3.59;100.00
45621;BME280;31345;51.522;10.702;2022-12-07T12:54:03;98683.00;;;3.55;100.00
45621;BME280;31345;51.522;10.702;2022-12-07T12:56:38;98673.94;;;3.47;100.00
45621;BME280;31345;51.522;10.702;2022-12-07T12:59:26;98679.34;;;3.40;100.00
45621;BME280;31345;51.522;10.702;2022-12-07T13:02:09;98679.91;;;3.47;100.00
45621;BME280;31345;51.522;10.702;2022-12-07T13:04:52;98672.81;;;3.52;100.00
45621;BME280;31345;51.522;10.702;2022-12-07T13:10:40;98671.47;;;3.43;100.00
45621;BME280;31345;51.522;10.702;2022-12-07T13:13:34;98666.31;;;3.43;100.00
45621;BME280;31345;51.522;10.702;2022-12-07T13:22:53;98668.22;;;3.59;100.00
45621;BME280;31345;51.522;10.702;2022-12-07T13:25:45;98668.97;;;3.61;100.00
45621;BME280;31345;51.522;10.702;2022-12-07T13:28:17;98658.75;;;3.58;100.00
45621;BME280;31345;51.522;10.702;2022-12-07T13:30:52;98656.28;;;3.56;100.00
45621;BME280;31345;51.522;10.702;2022-12-07T13:33:22;98648.16;;;3.45;100.00
45621;BME280;31345;51.522;10.702;2022-12-07T13:35:53;98657.91;;;3.38;100.00
45621;BME280;31345;51.522;10.702;2022-12-07T13:38:27;98660.63;;;3.35;100.00
45621;BME280;31345;51.522;10.702;2022-12-07T13:41:04;98654.72;;;3.32;100.00
45621;BME280;31345;51.522;10.702;2022-12-07T13:43:42;98660.50;;;3.38;100.00
45621;BME280;31345;51.522;10.702;2022-12-07T13:46:11;98650.22;;;3.37;100.00
45621;BME280;31345;51.522;10.702;2022-12-07T13:48:45;98663.81;;;3.21;100.00
45621;BME280;31345;51.522;10.702;2022-12-07T13:51:19;98654.03;;;3.28;100.00
45621;BME280;31345;51.522;10.702;2022-12-07T13:53:50;98653.47;;;3.21;100.00
45621;BME280;31345;51.522;10.702;2022-12-07T13:56:21;98651.53;;;3.26;100.00
45621;BME280;31345;51.522;10.702;2022-12-07T13:58:49;98650.88;;;3.21;100.00
45621;BME280;31345;51.522;10.702;2022-12-07T14:01:17;98655.06;;;3.24;100.00
45621;BME280;31345;51.522;10.702;2022-12-07T14:03:45;98657.84;;;3.19;100.00
45621;BME280;31345;51.522;10.702;2022-12-07T14:06:20;98663.34;;;3.11;100.00
45621;BME280;31345;51.522;10.702;2022-12-07T14:09:17;98664.16;;;3.12;100.00
45621;BME280;31345;51.522;10.702;2022-12-07T14:11:46;98661.28;;;3.20;100.00
45621;BME280;31345;51.522;10.702;2022-12-07T14:14:18;98665.09;;;3.11;100.00
45621;BME280;31345;51.522;10.702;2022-12-07T14:16:56;98656.75;;;3.04;100.00
45621;BME280;31345;51.522;10.702;2022-12-07T14:19:45;98656.53;;;3.10;100.00
45621;BME280;31345;51.522;10.702;2022-12-07T14:22:29;98653.53;;;2.99;100.00
45621;BME280;31345;51.522;10.702;2022-12-07T14:25:14;98638.03;;;2.99;100.00
45621;BME280;31345;51.522;10.702;2022-12-07T14:27:52;98634.84;;;2.92;100.00
45621;BME280;31345;51.522;10.702;2022-12-07T14:30:24;98646.31;;;3.07;100.00
45621;BME280;31345;51.522;10.702;2022-12-07T14:32:54;98647.66;;;2.95;100.00
45621;BME280;31345;51.522;10.702;2022-12-07T14:35:22;98641.25;;;3.04;100.00
45621;BME280;31345;51.522;10.702;2022-12-07T14:37:50;98647.53;;;2.98;100.00
45621;BME280;31345;51.522;10.702;2022-12-07T14:40:20;98642.69;;;2.90;100.00
45621;BME280;31345;51.522;10.702;2022-12-07T14:42:51;98634.50;;;3.01;100.00
45621;BME280;31345;51.522;10.702;2022-12-07T14:45:23;98639.59;;;3.03;100.00
45621;BME280;31345;51.522;10.702;2022-12-07T14:47:50;98647.66;;;2.95;100.00
45621;BME280;31345;51.522;10.702;2022-12-07T14:50:19;98641.00;;;2.89;100.00
45621;BME280;31345;51.522;10.702;2022-12-07T14:52:50;98638.91;;;2.77;100.00
45621;BME280;31345;51.522;10.702;2022-12-07T14:55:24;98642.53;;;2.73;100.00
45621;BME280;31345;51.522;10.702;2022-12-07T14:57:52;98646.88;;;2.72;100.00
45621;BME280;31345;51.522;10.702;2022-12-07T15:00:21;98644.16;;;2.75;100.00
45621;BME280;31345;51.522;10.702;2022-12-07T15:02:50;98640.88;;;2.72;100.00
45621;BME280;31345;51.522;10.702;2022-12-07T15:05:18;98645.38;;;2.67;100.00
45621;BME280;31345;51.522;10.702;2022-12-07T15:07:47;98646.19;;;2.67;100.00
45621;BME280;31345;51.522;10.702;2022-12-07T15:10:17;98646.41;;;2.62;100.00
45621;BME280;31345;51.522;10.702;2022-12-07T15:12:47;98641.16;;;2.64;100.00
45621;BME280;31345;51.522;10.702;2022-12-07T15:15:15;98646.09;;;2.70;100.00
45621;BME280;31345;51.522;10.702;2022-12-07T15:17:43;98648.03;;;2.65;100.00
45621;BME280;31345;51.522;10.702;2022-12-07T15:20:13;98645.63;;;2.60;100.00
45621;BME280;31345;51.522;10.702;2022-12-07T15:22:42;98641.47;;;2.56;100.00
45621;BME280;31345;51.522;10.702;2022-12-07T15:25:13;98637.47;;;2.49;100.00
45621;BME280;31345;51.522;10.702;2022-12-07T15:27:41;98638.38;;;2.48;100.00
45621;BME280;31345;51.522;10.702;2022-12-07T15:30:10;98638.38;;;2.48;100.00
45621;BME280;31345;51.522;10.702;2022-12-07T15:32:38;98641.19;;;2.42;100.00
45621;BME280;31345;51.522;10.702;2022-12-07T15:35:06;98640.03;;;2.49;100.00
45621;BME280;31345;51.522;10.702;2022-12-07T15:37:34;98639.41;;;2.44;100.00
45621;BME280;31345;51.522;10.702;2022-12-07T15:40:02;98639.69;;;2.36;100.00
45621;BME280;31345;51.522;10.702;2022-12-07T15:42:30;98636.63;;;2.48;100.00
45621;BME280;31345;51.522;10.702;2022-12-07T15:44:58;98637.47;;;2.49;100.00
45621;BME280;31345;51.522;10.702;2022-12-07T15:47:33;98637.78;;;2.41;100.00
45621;BME280;31345;51.522;10.702;2022-12-07T15:50:01;98634.81;;;2.50;100.00
45621;BME280;31345;51.522;10.702;2022-12-07T15:52:28;98637.91;;;2.38;100.00
45621;BME280;31345;51.522;10.702;2022-12-07T15:54:56;98639.63;;;2.37;100.00
45621;BME280;31345;51.522;10.702;2022-12-07T15:57:26;98635.38;;;2.36;100.00
45621;BME280;31345;51.522;10.702;2022-12-07T15:59:54;98637.72;;;2.43;100.00
45621;BME280;31345;51.522;10.702;2022-12-07T16:02:22;98635.91;;;2.45;100.00
45621;BME280;31345;51.522;10.702;2022-12-07T16:04:51;98643.06;;;2.38;100.00
45621;BME280;31345;51.522;10.702;2022-12-07T16:07:19;98637.00;;;2.39;100.00
45621;BME280;31345;51.522;10.702;2022-12-07T16:09:47;98631.66;;;2.44;100.00
45621;BME280;31345;51.522;10.702;2022-12-07T16:12:16;98631.66;;;2.44;100.00
45621;BME280;31345;51.522;10.702;2022-12-07T16:14:44;98629.97;;;2.43;100.00
45621;BME280;31345;51.522;10.702;2022-12-07T16:17:11;98637.84;;;2.39;100.00
45621;BME280;31345;51.522;10.702;2022-12-07T16:19:39;98636.69;;;2.47;100.00
45621;BME280;31345;51.522;10.702;2022-12-07T16:22:08;98641.97;;;2.44;100.00
45621;BME280;31345;51.522;10.702;2022-12-07T16:24:36;98636.69;;;2.47;100.00
45621;BME280;31345;51.522;10.702;2022-12-07T16:27:04;98641.84;;;2.47;100.00
45621;BME280;31345;51.522;10.702;2022-12-07T16:29:31;98645.47;;;2.43;100.00
45621;BME280;31345;51.522;10.702;2022-12-07T16:31:59;98642.25;;;2.36;100.00
45621;BME280;31345;51.522;10.702;2022-12-07T16:34:26;98646.59;;;2.35;100.00
45621;BME280;31345;51.522;10.702;2022-12-07T16:36:54;98650.09;;;2.34;100.00
45621;BME280;31345;51.522;10.702;2022-12-07T16:39:23;98640.31;;;2.43;100.00
45621;BME280;31345;51.522;10.702;2022-12-07T16:41:51;98644.66;;;2.40;100.00
45621;BME280;31345;51.522;10.702;2022-12-07T16:44:19;98638.81;;;2.37;100.00
45621;BME280;31345;51.522;10.702;2022-12-07T16:46:47;98637.78;;;2.41;100.00
45621;BME280;31345;51.522;10.702;2022-12-07T16:49:15;98644.63;;;2.42;100.00
45621;BME280;31345;51.522;10.702;2022-12-07T16:51:43;98637.53;;;2.47;100.00
45621;BME280;31345;51.522;10.702;2022-12-07T16:54:11;98644.63;;;2.42;100.00
45621;BME280;31345;51.522;10.702;2022-12-07T16:56:41;98636.63;;;2.48;100.00
45621;BME280;31345;51.522;10.702;2022-12-07T16:59:09;98637.91;;;2.38;100.00
45621;BME280;31345;51.522;10.702;2022-12-07T17:01:37;98636.69;;;2.47;100.00
45621;BME280;31345;51.522;10.702;2022-12-07T17:04:04;98634.34;;;2.40;100.00
45621;BME280;31345;51.522;10.702;2022-12-07T17:06:33;98626.38;;;2.47;100.00
45621;BME280;31345;51.522;10.702;2022-12-07T17:09:01;98627.88;;;2.52;100.00
45621;BME280;31345;51.522;10.702;2022-12-07T17:11:30;98631.38;;;2.50;100.00
45621;BME280;31345;51.522;10.702;2022-12-07T17:14:00;98625.28;;;2.52;100.00
45621;BME280;31345;51.522;10.702;2022-12-07T17:16:46;98628.75;;;2.51;100.00
45621;BME280;31345;51.522;10.702;2022-12-07T17:19:15;98626.78;;;2.58;100.00
45621;BME280;31345;51.522;10.702;2022-12-07T17:21:44;98621.88;;;2.52;100.00
45621;BME280;31345;51.522;10.702;2022-12-07T17:24:14;98632.19;;;2.52;100.00
45621;BME280;31345;51.522;10.702;2022-12-07T17:26:44;98629.84;;;2.46;100.00
45621;BME280;31345;51.522;10.702;2022-12-07T17:29:15;98624.38;;;2.53;100.00
45621;BME280;31345;51.522;10.702;2022-12-07T17:31:43;98620.84;;;2.56;100.00
45621;BME280;31345;51.522;10.702;2022-12-07T17:34:12;98623.66;;;2.50;100.00
45621;BME280;31345;51.522;10.702;2022-12-07T17:36:41;98619.47;;;2.47;100.00
45621;BME280;31345;51.522;10.702;2022-12-07T17:39:09;98620.91;;;2.55;100.00
45621;BME280;31345;51.522;10.702;2022-12-07T17:41:37;98620.94;;;2.53;100.00
45621;BME280;31345;51.522;10.702;2022-12-07T17:44:24;98613.31;;;2.50;100.00
45621;BME280;31345;51.522;10.702;2022-12-07T17:46:52;98611.16;;;2.61;100.00
45621;BME280;31345;51.522;10.702;2022-12-07T17:49:23;98610.84;;;2.48;100.00
45621;BME280;31345;51.522;10.702;2022-12-07T17:51:51;98611.09;;;2.63;100.00
45621;BME280;31345;51.522;10.702;2022-12-07T17:54:36;98611.59;;;2.50;100.00
45621;BME280;31345;51.522;10.702;2022-12-07T17:57:04;98604.44;;;2.57;100.00
45621;BME280;31345;51.522;10.702;2022-12-07T17:59:33;98612.31;;;2.54;100.00
45621;BME280;31345;51.522;10.702;2022-12-07T18:02:01;98610.75;;;2.50;100.00
45621;BME280;31345;51.522;10.702;2022-12-07T18:04:28;98616.69;;;2.52;100.00
45621;BME280;31345;51.522;10.702;2022-12-07T18:06:56;98605.72;;;2.47;100.00
45621;BME280;31345;51.522;10.702;2022-12-07T18:09:24;98601.44;;;2.46;100.00
45621;BME280;31345;51.522;10.702;2022-12-07T18:11:51;98600.44;;;2.50;100.00
45621;BME280;31345;51.522;10.702;2022-12-07T18:14:19;98607.47;;;2.46;100.00
45621;BME280;31345;51.522;10.702;2022-12-07T18:16:48;98592.69;;;2.50;100.00
45621;BME280;31345;51.522;10.702;2022-12-07T18:19:16;98603.56;;;2.36;100.00
45621;BME280;31345;51.522;10.702;2022-12-07T18:21:44;98596.09;;;2.30;100.00
45621;BME280;31345;51.522;10.702;2022-12-07T18:24:14;98602.53;;;2.40;100.00
45621;BME280;31345;51.522;10.702;2022-12-07T18:26:43;98603.78;;;2.31;100.00
45621;BME280;31345;51.522;10.702;2022-12-07T18:29:14;98607.97;;;2.34;100.00
45621;BME280;31345;51.522;10.702;2022-12-07T18:31:43;98609.28;;;2.22;100.00
45621;BME280;31345;51.522;10.702;2022-12-07T18:34:15;98607.53;;;2.22;100.00
45621;BME280;31345;51.522;10.702;2022-12-07T18:36:44;98612.88;;;2.18;100.00
45621;BME280;31345;51.522;10.702;2022-12-07T18:39:13;98601.34;;;2.26;100.00
45621;BME280;31345;51.522;10.702;2022-12-07T18:41:42;98605.81;;;2.23;100.00
45621;BME280;31345;51.522;10.702;2022-12-07T18:44:10;98602.22;;;2.27;100.00
45621;BME280;31345;51.522;10.702;2022-12-07T18:46:39;98610.19;;;2.21;100.00
45621;BME280;31345;51.522;10.702;2022-12-07T18:49:08;98607.84;;;2.14;100.00
45621;BME280;31345;51.522;10.702;2022-12-07T18:51:38;98602.03;;;2.09;100.00
45621;BME280;31345;51.522;10.702;2022-12-07T18:54:06;98600.56;;;2.02;100.00
45621;BME280;31345;51.522;10.702;2022-12-07T18:56:34;98605.03;;;1.98;100.00
45621;BME280;31345;51.522;10.702;2022-12-07T18:59:03;98597.69;;;1.87;100.00
45621;BME280;31345;51.522;10.702;2022-12-07T19:01:49;98599.75;;;2.01;100.00
45621;BME280;31345;51.522;10.702;2022-12-07T19:04:20;98593.69;;;2.03;100.00
45621;BME280;31345;51.522;10.702;2022-12-07T19:06:49;98599.97;;;1.95;100.00
45621;BME280;31345;51.522;10.702;2022-12-07T19:09:17;98601.25;;;2.07;100.00
45621;BME280;31345;51.522;10.702;2022-12-07T19:11:46;98594.81;;;2.18;100.00
45621;BME280;31345;51.522;10.702;2022-12-07T19:14:23;98594.97;;;2.14;100.00
45621;BME280;31345;51.522;10.702;2022-12-07T19:16:53;98584.09;;;2.06;100.00
45621;BME280;31345;51.522;10.702;2022-12-07T19:22:27;98584.44;;;2.19;100.00
45621;BME280;31345;51.522;10.702;2022-12-07T19:24:58;98580.06;;;2.21;100.00
45621;BME280;31345;51.522;10.702;2022-12-07T19:27:34;98577.84;;;2.12;100.00
45621;BME280;31345;51.522;10.702;2022-12-07T19:30:06;98581.53;;;2.06;100.00
45621;BME280;31345;51.522;10.702;2022-12-07T19:32:55;98575.94;;;2.17;100.00
45621;BME280;31345;51.522;10.702;2022-12-07T19:35:25;98576.91;;;2.14;100.00
45621;BME280;31345;51.522;10.702;2022-12-07T19:37:57;98572.69;;;2.12;100.00
45621;BME280;31345;51.522;10.702;2022-12-07T19:40:26;98575.41;;;2.09;100.00
45621;BME280;31345;51.522;10.702;2022-12-07T19:42:58;98574.50;;;2.10;100.00
45621;BME280;31345;51.522;10.702;2022-12-07T19:45:56;98577.66;;;2.17;100.00
45621;BME280;31345;51.522;10.702;2022-12-07T19:48:30;98570.84;;;2.16;100.00
45621;BME280;31345;51.522;10.702;2022-12-07T19:51:02;98580.69;;;2.06;100.00
45621;BME280;31345;51.522;10.702;2022-12-07T19:53:32;98571.22;;;2.06;100.00
45621;BME280;31345;51.522;10.702;2022-12-07T19:56:00;98566.06;;;2.06;100.00
45621;BME280;31345;51.522;10.702;2022-12-07T19:58:29;98564.34;;;2.05;100.00
45621;BME280;31345;51.522;10.702;2022-12-07T20:01:01;98559.94;;;2.09;100.00
45621;BME280;31345;51.522;10.702;2022-12-07T20:03:31;98561.72;;;2.07;100.00
45621;BME280;31345;51.522;10.702;2022-12-07T20:06:00;98558.72;;;2.18;100.00
45621;BME280;31345;51.522;10.702;2022-12-07T20:08:28;98557.41;;;2.07;100.00
45621;BME280;31345;51.522;10.702;2022-12-07T20:10:58;98551.84;;;1.96;100.00
45621;BME280;31345;51.522;10.702;2022-12-07T20:13:46;98545.00;;;1.95;100.00
45621;BME280;31345;51.522;10.702;2022-12-07T20:16:13;98548.41;;;1.95;100.00
45621;BME280;31345;51.522;10.702;2022-12-07T20:18:41;98545.13;;;1.92;100.00
45621;BME280;31345;51.522;10.702;2022-12-07T20:21:09;98544.75;;;2.01;100.00
45621;BME280;31345;51.522;10.702;2022-12-07T20:23:37;98540.72;;;1.94;100.00
45621;BME280;31345;51.522;10.702;2022-12-07T20:26:07;98542.53;;;1.92;100.00
45621;BME280;31345;51.522;10.702;2022-12-07T20:28:36;98541.41;;;1.99;100.00
45621;BME280;31345;51.522;10.702;2022-12-07T20:31:04;98540.97;;;2.10;100.00
45621;BME280;31345;51.522;10.702;2022-12-07T20:33:31;98539.06;;;1.93;100.00
45621;BME280;31345;51.522;10.702;2022-12-07T20:36:00;98548.25;;;2.00;100.00
45621;BME280;31345;51.522;10.702;2022-12-07T20:38:28;98550.22;;;1.93;100.00
45621;BME280;31345;51.522;10.702;2022-12-07T20:40:59;98553.94;;;2.08;100.00
45621;BME280;31345;51.522;10.702;2022-12-07T20:43:29;98551.47;;;2.05;100.00
45621;BME280;31345;51.522;10.702;2022-12-07T20:45:56;98550.03;;;1.98;100.00
45621;BME280;31345;51.522;10.702;2022-12-07T20:48:24;98555.75;;;2.06;100.00
45621;BME280;31345;51.522;10.702;2022-12-07T20:50:52;98551.84;;;1.96;100.00
45621;BME280;31345;51.522;10.702;2022-12-07T20:53:20;98549.50;;;1.90;100.00
45621;BME280;31345;51.522;10.702;2022-12-07T20:55:47;98544.47;;;1.86;100.00
45621;BME280;31345;51.522;10.702;2022-12-07T20:58:15;98541.69;;;1.91;100.00
45621;BME280;31345;51.522;10.702;2022-12-07T21:00:44;98538.53;;;1.84;100.00
45621;BME280;31345;51.522;10.702;2022-12-07T21:03:12;98531.66;;;1.85;100.00
45621;BME280;31345;51.522;10.702;2022-12-07T21:05:39;98529.13;;;1.83;100.00
45621;BME280;31345;51.522;10.702;2022-12-07T21:08:07;98529.47;;;1.74;100.00
45621;BME280;31345;51.522;10.702;2022-12-07T21:10:35;98528.69;;;1.72;100.00
45621;BME280;31345;51.522;10.702;2022-12-07T21:13:02;98521.97;;;1.68;100.00
45621;BME280;31345;51.522;10.702;2022-12-07T21:15:30;98512.38;;;1.71;100.00
45621;BME280;31345;51.522;10.702;2022-12-07T21:17:59;98516.94;;;1.65;100.00
45621;BME280;31345;51.522;10.702;2022-12-07T21:20:27;98513.53;;;1.64;100.00
45621;BME280;31345;51.522;10.702;2022-12-07T21:22:54;98510.53;;;1.53;100.00
45621;BME280;31345;51.522;10.702;2022-12-07T21:25:22;98508.84;;;1.52;100.00
45621;BME280;31345;51.522;10.702;2022-12-07T21:27:50;98504.84;;;1.44;100.00
45621;BME280;31345;51.522;10.702;2022-12-07T21:30:18;98503.78;;;1.50;100.00
45621;BME280;31345;51.522;10.702;2022-12-07T21:32:46;98505.66;;;1.45;100.00
45621;BME280;31345;51.522;10.702;2022-12-07T21:35:15;98506.09;;;1.56;100.00
45621;BME280;31345;51.522;10.702;2022-12-07T21:37:43;98503.19;;;1.42;100.00
45621;BME280;31345;51.522;10.702;2022-12-07T21:40:12;98501.56;;;1.39;100.00
45621;BME280;31345;51.522;10.702;2022-12-07T21:42:40;98508.97;;;1.48;100.00
45621;BME280;31345;51.522;10.702;2022-12-07T21:45:10;98503.31;;;1.39;100.00
45621;BME280;31345;51.522;10.702;2022-12-07T21:47:37;98497.94;;;1.45;100.00
45621;BME280;31345;51.522;10.702;2022-12-07T21:50:06;98500.50;;;1.45;100.00
45621;BME280;31345;51.522;10.702;2022-12-07T21:52:35;98496.91;;;1.49;100.00
45621;BME280;31345;51.522;10.702;2022-12-07T21:55:04;98498.47;;;1.53;100.00
45621;BME280;31345;51.522;10.702;2022-12-07T21:57:32;98490.53;;;1.59;100.00
45621;BME280;31345;51.522;10.702;2022-12-07T22:00:01;98490.88;;;1.50;100.00
45621;BME280;31345;51.522;10.702;2022-12-07T22:02:31;98491.81;;;1.70;100.00
45621;BME280;31345;51.522;10.702;2022-12-07T22:04:59;98482.06;;;1.56;100.00
45621;BME280;31345;51.522;10.702;2022-12-07T22:07:27;98483.56;;;1.61;100.00
45621;BME280;31345;51.522;10.702;2022-12-07T22:09:56;98482.78;;;1.59;100.00
45621;BME280;31345;51.522;10.702;2022-12-07T22:12:24;98483.44;;;1.65;100.00
45621;BME280;31345;51.522;10.702;2022-12-07T22:14:52;98480.22;;;1.59;100.00
45621;BME280;31345;51.522;10.702;2022-12-07T22:17:32;98481.22;;;1.55;100.00
45621;BME280;31345;51.522;10.702;2022-12-07T22:20:00;98475.97;;;1.58;100.00
45621;BME280;31345;51.522;10.702;2022-12-07T22:22:28;98477.81;;;1.55;100.00
45621;BME280;31345;51.522;10.702;2022-12-07T22:24:57;98482.19;;;1.53;100.00
45621;BME280;31345;51.522;10.702;2022-12-07T22:27:25;98489.28;;;1.46;100.00
45621;BME280;31345;51.522;10.702;2022-12-07T22:29:53;98477.31;;;1.45;100.00
45621;BME280;31345;51.522;10.702;2022-12-07T22:32:20;98474.53;;;1.51;100.00
45621;BME280;31345;51.522;10.702;2022-12-07T22:34:48;98473.63;;;1.52;100.00
45621;BME280;31345;51.522;10.702;2022-12-07T22:37:16;98472.97;;;1.69;100.00
45621;BME280;31345;51.522;10.702;2022-12-07T22:39:45;98467.59;;;1.74;100.00
45621;BME280;31345;51.522;10.702;2022-12-07T22:42:14;98463.84;;;1.60;100.00
45621;BME280;31345;51.522;10.702;2022-12-07T22:44:42;98465.81;;;1.54;100.00
45621;BME280;31345;51.522;10.702;2022-12-07T22:47:12;98460.09;;;1.47;100.00
45621;BME280;31345;51.522;10.702;2022-12-07T22:49:39;98453.22;;;1.46;100.00
45621;BME280;31345;51.522;10.702;2022-12-07T22:52:07;98460.97;;;1.46;100.00
45621;BME280;31345;51.522;10.702;2022-12-07T22:54:35;98452.47;;;1.44;100.00
45621;BME280;31345;51.522;10.702;2022-12-07T22:57:03;98454.50;;;1.58;100.00
45621;BME280;31345;51.522;10.702;2022-12-07T22:59:32;98450.91;;;1.62;100.00
45621;BME280;31345;51.522;10.702;2022-12-07T23:02:00;98451.28;;;1.53;100.00
45621;BME280;31345;51.522;10.702;2022-12-07T23:04:27;98445.44;;;1.47;100.00
45621;BME280;31345;51.522;10.702;2022-12-07T23:06:57;98446.28;;;1.48;100.00
45621;BME280;31345;51.522;10.702;2022-12-07T23:09:25;98446.94;;;1.53;100.00
45621;BME280;31345;51.522;10.702;2022-12-07T23:11:53;98438.41;;;1.53;100.00
45621;BME280;31345;51.522;10.702;2022-12-07T23:14:39;98436.63;;;1.53;100.00
45621;BME280;31345;51.522;10.702;2022-12-07T23:17:07;98439.22;;;1.53;100.00
45621;BME280;31345;51.522;10.702;2022-12-07T23:19:34;98433.09;;;1.56;100.00
45621;BME280;31345;51.522;10.702;2022-12-07T23:22:02;98433.56;;;1.66;100.00
45621;BME280;31345;51.522;10.702;2022-12-07T23:24:30;98434.66;;;1.60;100.00
45621;BME280;31345;51.522;10.702;2022-12-07T23:26:57;98422.56;;;1.62;100.00
45621;BME280;31345;51.522;10.702;2022-12-07T23:29:25;98421.84;;;1.58;100.00
45621;BME280;31345;51.522;10.702;2022-12-07T23:31:54;98417.41;;;1.62;100.00
45621;BME280;31345;51.522;10.702;2022-12-07T23:34:22;98417.41;;;1.62;100.00
45621;BME280;31345;51.522;10.702;2022-12-07T23:36:50;98410.69;;;1.58;100.00
45621;BME280;31345;51.522;10.702;2022-12-07T23:39:17;98411.66;;;1.55;100.00
45621;BME280;31345;51.522;10.702;2022-12-07T23:41:45;98412.63;;;1.53;100.00
45621;BME280;31345;51.522;10.702;2022-12-07T23:44:13;98410.81;;;1.55;100.00
45621;BME280;31345;51.522;10.702;2022-12-07T23:46:40;98408.50;;;1.48;100.00
45621;BME280;31345;51.522;10.702;2022-12-07T23:49:10;98399.06;;;1.47;100.00
45621;BME280;31345;51.522;10.702;2022-12-07T23:51:39;98406.09;;;1.44;100.00
45621;BME280;31345;51.522;10.702;2022-12-07T23:54:07;98404.28;;;1.46;100.00
45621;BME280;31345;51.522;10.702;2022-12-07T23:56:34;98408.97;;;1.58;100.00
45621;BME280;31345;51.522;10.702;2022-12-07T23:59:03;98405.06;;;1.48;100.00
